KP59

Copper Harbor Airport

Michigan, USA
METAR KP59 151551Z AUTO 22007KT 03/M01 A3018 RMK AO1 SLP228 T00281011
Observed Flight Rules
Dec-15 @ 15:51 UTC (17 minutes ago)
Wind
220° at 7 knots
Temperatures Readings
Current 3°C / 37°F
Dewpoint -1°C / 30°F
Humidity 75%
Altimeter 30.18" Hg
Pressure 1022.8 hPa
Elevation 190
METAR KP59 151551Z AUTO 22007KT 03/M01 A3018 RMK AO1 SLP228 T00281011
Observed Flight Rules
Dec-15 @ 15:51 UTC
(17 minutes ago)
Wind
220° at 7 knots
Temperature Dewpoint
3°C / 37°F -1°C / 30°F
Humidity Altimeter Pressure
75% 30.18" Hg 1022.8 hPa